Juneau, WI

11:41 AM CST on February 26, 2017 (GMT -0600)
Dodge County

Weather History for KUNU - November, 2014

Change the Weather History Date:

Sunday, November 30, 2014

  Actual Average Record
Temperature  
Mean Temperature 25 °F -  
Max Temperature 36 °F 39 °F 64 °F (1998)
Min Temperature 13 °F 27 °F -6 °F (1976)
Degree Days  
Heating Degree Days 40    
Moisture  
Dew Point 23 °F    
Average Humidity 83    
Maximum Humidity 100    
Minimum Humidity 63    
Precipitation  
Precipitation 0.00 in - - ()
Sea Level Pressure  
Sea Level Pressure 29.91 in    
Wind  
Wind Speed 8 mph (WNW)    
Max Wind Speed 14 mph    
Max Gust Speed 22 mph    
Visibility 6 miles    
Events Fog , Snow    
Averages and records for this station are not official NWS values.
T = Trace of Precipitation, MM = Missing Value Source: NWS Daily Summary

Daily Weather History Graph

Daily Weather History Graph

Search for Another Location

Airport or City:

Trip Planner

Search our weather history database for the weather conditions in past years. The results will help you decide how hot, cold, wet, or windy it might be!

Date:

Astronomy

Nov. 30, 2014 Rise Set
Actual Time 7:06 AM CST 4:20 PM CST
Civil Twilight 6:34 AM CST 4:52 PM CST
Nautical Twilight 5:59 AM CST 5:27 PM CST
Astronomical Twilight 5:24 AM CST 6:02 PM CST
Moon 1:00 PM CST (11/30) 12:25 AM CST (11/30)
Length of Visible Light 10h 17m
Length of Day
9h 13m
Waxing Gibbous, 65% of the Moon is Illuminated
Nov 30
Waxing Gibbous
Dec 6
Full
Dec 14
Last Quarter
Dec 21
New
Dec 28
First Quarter

Hourly Weather History & Observations

Time (CST) Temp. Windchill Dew Point Humidity Pressure Visibility Wind Dir Wind Speed Gust Speed Precip Events Conditions
12:15 AM 35.8 °F 30.1 °F 35.6 °F 99% 29.57 in 0.2 mi SSW 6.9 mph - N/A Fog Fog
12:35 AM 36.0 °F 30.3 °F 35.8 °F 99% 29.56 in 0.2 mi South 6.9 mph - N/A Fog Fog
12:55 AM 36.5 °F 31.0 °F 36.1 °F 99% 29.56 in 0.2 mi South 6.9 mph - N/A Fog Fog
1:15 AM 36.7 °F 32.0 °F 36.7 °F 100% 29.57 in 0.2 mi SSW 5.8 mph - N/A Fog Fog
1:35 AM 36.7 °F 31.2 °F 36.5 °F 99% 29.58 in 0.2 mi SSW 6.9 mph - N/A Fog Fog
1:55 AM 36.3 °F 31.6 °F 36.1 °F 99% 29.59 in 0.2 mi SW 5.8 mph - N/A Fog Fog
2:15 AM 36.9 °F 32.2 °F 36.9 °F 100% 29.59 in 0.2 mi SSW 5.8 mph - N/A Fog Fog
2:35 AM 36.5 °F - 36.5 °F 100% 29.59 in 0.2 mi Calm Calm - N/A Fog Fog
2:55 AM 35.6 °F 32.8 °F 35.4 °F 99% 29.59 in 0.2 mi SSW 3.5 mph - N/A Fog Fog
3:15 AM 34.9 °F 32.0 °F 34.7 °F 99% 29.59 in 0.2 mi WSW 3.5 mph - N/A Fog Fog
3:35 AM 35.4 °F 32.6 °F 35.2 °F 99% 29.60 in 0.2 mi WSW 3.5 mph - N/A Fog Fog
3:55 AM 34.0 °F 31.0 °F 33.8 °F 99% 29.60 in 0.2 mi WSW 3.5 mph - N/A Fog Fog
4:15 AM 35.1 °F 31.0 °F 34.9 °F 99% 29.61 in 0.2 mi WSW 4.6 mph - N/A Fog Fog
4:35 AM 34.5 °F 31.6 °F 34.5 °F 100% 29.63 in 0.2 mi West 3.5 mph - N/A Snow Light Snow
4:55 AM 34.0 °F 29.8 °F 34.0 °F 100% 29.64 in 0.2 mi WNW 4.6 mph - N/A Fog Fog
5:15 AM 33.3 °F 27.9 °F 33.3 °F 100% 29.65 in 5.0 mi WNW 5.8 mph - N/A   Mostly Cloudy
5:35 AM 32.4 °F 26.0 °F 32.0 °F 99% 29.66 in 7.0 mi NW 6.9 mph - N/A   Clear
5:55 AM 31.8 °F 23.3 °F 30.4 °F 94% 29.68 in 5.0 mi WNW 10.4 mph 18.4 mph N/A   Scattered Clouds
6:15 AM 31.1 °F 23.7 °F 29.8 °F 95% 29.69 in 4.0 mi NW 8.1 mph 17.3 mph N/A   Mostly Cloudy
6:35 AM 31.1 °F 23.1 °F 29.8 °F 95% 29.71 in 4.0 mi NW 9.2 mph 17.3 mph N/A   Overcast
6:55 AM 30.9 °F 24.3 °F 29.7 °F 95% 29.73 in 3.0 mi NW 6.9 mph - N/A   Overcast
7:15 AM 30.9 °F 22.2 °F 29.3 °F 94% 29.72 in 2.5 mi NNW 10.4 mph - N/A   Overcast
7:35 AM 30.9 °F 22.2 °F 29.3 °F 94% 29.74 in 2.5 mi NW 10.4 mph - N/A   Overcast
7:55 AM 30.4 °F 22.2 °F 28.8 °F 94% 29.75 in 3.0 mi NNW 9.2 mph - N/A   Overcast
8:15 AM 30.2 °F 22.6 °F 28.2 °F 92% 29.76 in 3.0 mi NW 8.1 mph - N/A   Overcast
8:35 AM 30.2 °F 22.6 °F 28.4 °F 93% 29.78 in 3.0 mi NW 8.1 mph - N/A   Overcast
8:55 AM 30.2 °F 21.9 °F 28.4 °F 93% 29.78 in 3.0 mi NW 9.2 mph 16.1 mph N/A   Overcast
9:15 AM 30.7 °F 22.6 °F 28.2 °F 90% 29.78 in 4.0 mi NW 9.2 mph 16.1 mph N/A   Overcast
9:35 AM 31.1 °F 21.4 °F 28.6 °F 90% 29.79 in 4.0 mi NNW 12.7 mph 17.3 mph N/A   Overcast
9:55 AM 31.3 °F 23.9 °F 28.4 °F 89% 29.82 in 4.0 mi NW 8.1 mph - N/A   Overcast
10:15 AM 31.5 °F 23.5 °F 28.0 °F 87% 29.82 in 5.0 mi NNW 9.2 mph 16.1 mph N/A   Overcast
10:35 AM 31.3 °F 22.7 °F 27.5 °F 86% 29.83 in 7.0 mi NW 10.4 mph 18.4 mph N/A   Overcast
10:55 AM 31.6 °F 21.6 °F 27.5 °F 85% 29.84 in 7.0 mi NW 13.8 mph 18.4 mph N/A   Overcast
11:15 AM 31.5 °F 23.5 °F 27.3 °F 85% 29.84 in 7.0 mi WNW 9.2 mph - N/A   Overcast
11:35 AM 31.5 °F 23.5 °F 27.3 °F 85% 29.85 in 7.0 mi NW 9.2 mph 17.3 mph N/A   Overcast
11:55 AM 31.6 °F 22.1 °F 27.5 °F 85% 29.85 in 7.0 mi NW 12.7 mph 18.4 mph N/A   Overcast
12:15 PM 31.5 °F 21.8 °F 27.3 °F 85% 29.86 in 7.0 mi WNW 12.7 mph 18.4 mph N/A   Overcast
12:35 PM 29.8 °F 20.3 °F 26.6 °F 88% 29.87 in 5.0 mi NW 11.5 mph 18.4 mph N/A   Overcast
12:55 PM 29.3 °F 19.6 °F 25.7 °F 86% 29.89 in 5.0 mi WNW 11.5 mph 17.3 mph N/A   Overcast
1:15 PM 28.4 °F 19.1 °F 23.7 °F 83% 29.91 in 7.0 mi WNW 10.4 mph 18.4 mph N/A   Overcast
1:35 PM 27.9 °F 17.3 °F 22.1 °F 79% 29.92 in 10.0 mi NW 12.7 mph 20.7 mph N/A   Overcast
1:55 PM 28.0 °F 18.6 °F 22.1 °F 78% 29.92 in 10.0 mi NW 10.4 mph 16.1 mph N/A   Overcast
2:15 PM 27.5 °F 16.8 °F 20.8 °F 76% 29.94 in 10.0 mi NW 12.7 mph 21.9 mph N/A   Overcast
2:35 PM 27.1 °F 16.9 °F 20.3 °F 75% 29.96 in 10.0 mi NW 11.5 mph 20.7 mph N/A   Overcast
2:55 PM 27.5 °F 16.8 °F 19.9 °F 73% 29.98 in 10.0 mi NW 12.7 mph - N/A   Overcast
3:15 PM 27.1 °F 17.5 °F 18.3 °F 69% 30.00 in 10.0 mi NW 10.4 mph - N/A   Mostly Cloudy
3:35 PM 27.1 °F 18.2 °F 16.9 °F 65% 30.01 in 10.0 mi NW 9.2 mph - N/A   Scattered Clouds
3:55 PM 26.1 °F 15.6 °F 15.6 °F 65% 30.02 in 10.0 mi NW 11.5 mph - N/A   Clear
4:15 PM 24.6 °F 14.4 °F 14.9 °F 67% 30.04 in 10.0 mi NW 10.4 mph 17.3 mph N/A   Clear
4:35 PM 23.5 °F 13.7 °F 14.0 °F 67% 30.07 in 10.0 mi NW 9.2 mph 17.3 mph N/A   Clear
4:55 PM 22.8 °F 12.2 °F 13.8 °F 68% 30.09 in 10.0 mi NW 10.4 mph - N/A   Clear
5:15 PM 21.9 °F 12.5 °F 13.5 °F 70% 30.11 in 10.0 mi WNW 8.1 mph 18.4 mph N/A   Clear
5:35 PM 21.2 °F 10.9 °F 12.9 °F 70% 30.12 in 10.0 mi WNW 9.2 mph 16.1 mph N/A   Clear
5:55 PM 20.5 °F 8.0 °F 12.0 °F 70% 30.13 in 10.0 mi NW 12.7 mph 18.4 mph N/A   Clear
6:15 PM 19.9 °F 7.3 °F 11.3 °F 69% 30.15 in 10.0 mi NW 12.7 mph 19.6 mph N/A   Clear
6:35 PM 19.4 °F 6.6 °F 11.3 °F 71% 30.15 in 10.0 mi NW 12.7 mph 19.6 mph N/A   Clear
6:55 PM 19.0 °F 6.1 °F 10.6 °F 70% 30.17 in 10.0 mi NW 12.7 mph 18.4 mph N/A   Clear
7:15 PM 18.5 °F 6.8 °F 10.2 °F 70% 30.19 in 10.0 mi NW 10.4 mph 17.3 mph N/A   Clear
7:35 PM 18.3 °F 7.3 °F 10.0 °F 70% 30.20 in 10.0 mi NW 9.2 mph 19.6 mph N/A   Clear
7:55 PM 18.1 °F 7.1 °F 10.2 °F 71% 30.22 in 10.0 mi WNW 9.2 mph - N/A   Clear
8:15 PM 18.1 °F 5.6 °F 9.5 °F 69% 30.23 in 10.0 mi NW 11.5 mph 17.3 mph N/A   Clear
8:35 PM 17.6 °F 6.4 °F 9.3 °F 70% 30.24 in 10.0 mi NW 9.2 mph 17.3 mph N/A   Clear
8:55 PM 17.6 °F 3.7 °F 8.6 °F 68% 30.26 in 10.0 mi NW 13.8 mph 21.9 mph N/A   Clear
9:15 PM 17.2 °F 5.2 °F 8.8 °F 69% 30.28 in 10.0 mi NW 10.4 mph 16.1 mph N/A   Clear
9:35 PM 16.7 °F 3.2 °F 7.5 °F 67% 30.29 in 10.0 mi NW 12.7 mph 16.1 mph N/A   Clear
9:55 PM 16.5 °F 4.3 °F 7.0 °F 66% 30.30 in 10.0 mi NW 10.4 mph 17.3 mph N/A   Clear
10:15 PM 16.2 °F 3.9 °F 6.6 °F 66% 30.30 in 10.0 mi NW 10.4 mph 19.6 mph N/A   Clear
10:35 PM 15.6 °F 2.5 °F 5.7 °F 65% 30.32 in 10.0 mi NW 11.5 mph 19.6 mph N/A   Clear
10:55 PM 15.1 °F 3.3 °F 4.5 °F 63% 30.34 in 10.0 mi NW 9.2 mph 20.7 mph N/A   Clear
11:15 PM 14.7 °F 0.1 °F 4.8 °F 65% 30.34 in 10.0 mi NW 13.8 mph 20.7 mph N/A   Clear
11:35 PM 14.2 °F 2.2 °F 3.9 °F 64% 30.35 in 10.0 mi NW 9.2 mph 18.4 mph N/A   Clear
11:55 PM 13.6 °F 0.7 °F 4.1 °F 66% 30.35 in 10.0 mi NW 10.4 mph - N/A   Clear